Time;durP1;ratioP1;P1;durP2;ratioP2;P2;SDS_P1;SDS_P2;PMS_P1;PMS_P2;Temp;Humidity;BMP_temperature;BMP_pressure;BME280_temperature;BME280_humidity;BME280_pressure;Samples;Min_cycle;Max_cycle;Signal;HPM_P1;HPM_P2
2021/04/25 00:01:13;;;;;;;0.57;0.53;;;3.80;99.90;;;;;;5094376;28;20208;-83
2021/04/25 00:03:39;;;;;;;2.03;1.00;;;3.80;99.90;;;;;;5111830;27;20192;-82
2021/04/25 00:06:05;;;;;;;3.07;1.80;;;3.70;99.90;;;;;;5093028;28;20546;-82
2021/04/25 00:08:32;;;;;;;0.53;0.37;;;3.70;99.90;;;;;;5094840;28;20271;-83
2021/04/25 00:10:58;;;;;;;1.07;0.40;;;3.70;99.90;;;;;;5095885;28;20208;-82
2021/04/25 00:13:24;;;;;;;1.17;0.40;;;3.70;99.90;;;;;;5093935;28;20229;-82
2021/04/25 00:15:50;;;;;;;0.47;0.47;;;3.70;99.90;;;;;;5115915;27;20216;-82
2021/04/25 00:18:15;;;;;;;0.60;0.60;;;3.60;99.90;;;;;;5093693;28;20216;-83
2021/04/25 00:20:41;;;;;;;0.67;0.53;;;3.70;99.90;;;;;;5113422;27;20204;-83
2021/04/25 00:23:07;;;;;;;0.40;0.40;;;3.60;99.90;;;;;;5117895;27;20172;-83
2021/04/25 00:25:33;;;;;;;3.20;0.67;;;3.60;99.90;;;;;;5133387;27;20188;-83
2021/04/25 00:27:58;;;;;;;3.07;0.70;;;3.50;99.90;;;;;;5129172;27;20195;-83
2021/04/25 00:30:24;;;;;;;2.47;0.67;;;3.50;99.90;;;;;;5092341;28;20216;-83
2021/04/25 00:32:50;;;;;;;0.40;0.30;;;3.50;99.90;;;;;;5092530;28;20183;-83
2021/04/25 00:35:18;;;;;;;2.23;0.57;;;3.50;99.90;;;;;;5110660;28;20180;-83
2021/04/25 00:37:44;;;;;;;0.70;0.40;;;3.50;99.90;;;;;;5092233;28;20236;-84
2021/04/25 00:40:12;;;;;;;1.13;0.53;;;3.60;99.90;;;;;;5092155;28;20191;-84
2021/04/25 00:42:38;;;;;;;0.60;0.57;;;3.50;99.90;;;;;;5091844;28;20237;-83
2021/04/25 00:45:07;;;;;;;3.40;1.33;;;3.40;99.90;;;;;;5091525;28;20235;-83
2021/04/25 00:47:33;;;;;;;1.03;0.70;;;3.40;99.90;;;;;;5091355;28;20856;-84
2021/04/25 00:49:58;;;;;;;2.03;0.80;;;3.30;99.90;;;;;;5090675;27;20204;-83
2021/04/25 00:52:25;;;;;;;0.83;0.70;;;3.30;99.90;;;;;;5091026;28;20239;-83
2021/04/25 00:54:51;;;;;;;1.73;0.80;;;3.30;99.90;;;;;;5109680;28;20191;-82
2021/04/25 00:57:17;;;;;;;0.87;0.87;;;3.40;99.90;;;;;;5109932;27;20536;-85
2021/04/25 00:59:43;;;;;;;0.50;0.47;;;3.30;99.90;;;;;;5091303;28;20176;-83
2021/04/25 01:02:10;;;;;;;0.70;0.50;;;3.30;99.90;;;;;;5091501;28;20192;-83
2021/04/25 01:04:36;;;;;;;0.63;0.50;;;3.40;99.90;;;;;;5109342;27;20183;-84
2021/04/25 01:07:03;;;;;;;0.83;0.50;;;3.30;99.90;;;;;;5109129;28;20322;-84
2021/04/25 01:09:30;;;;;;;1.83;0.60;;;3.20;99.90;;;;;;5091043;28;20682;-84
2021/04/25 01:11:56;;;;;;;1.83;1.23;;;3.20;99.90;;;;;;5108693;28;20220;-84
2021/04/25 01:14:22;;;;;;;1.87;0.50;;;3.30;99.90;;;;;;5090872;28;20191;-84
2021/04/25 01:16:49;;;;;;;0.80;0.50;;;3.30;99.90;;;;;;5109172;27;20183;-84
2021/04/25 01:19:14;;;;;;;0.60;0.60;;;3.10;99.90;;;;;;5091195;28;20184;-84
2021/04/25 01:21:40;;;;;;;1.90;0.43;;;3.00;99.90;;;;;;5109367;27;20204;-85
2021/04/25 01:24:06;;;;;;;0.87;0.60;;;2.90;99.90;;;;;;5109409;27;20184;-84
2021/04/25 01:26:32;;;;;;;1.03;0.90;;;2.80;99.90;;;;;;5090422;28;20207;-85
2021/04/25 01:28:57;;;;;;;1.20;0.60;;;2.70;99.90;;;;;;5090402;27;20198;-84
2021/04/25 01:31:23;;;;;;;0.97;0.77;;;2.70;99.90;;;;;;5109576;27;20220;-84
2021/04/25 01:33:49;;;;;;;0.67;0.60;;;2.70;99.90;;;;;;5091247;28;20179;-84
2021/04/25 01:36:15;;;;;;;1.13;0.97;;;2.70;99.90;;;;;;5109163;27;20245;-83
2021/04/25 01:38:40;;;;;;;0.70;0.50;;;2.70;99.90;;;;;;5090923;28;20269;-83
2021/04/25 01:41:06;;;;;;;0.40;0.30;;;2.70;99.90;;;;;;5108893;27;20204;-84
2021/04/25 01:43:31;;;;;;;0.97;0.77;;;2.60;99.90;;;;;;5090632;28;20176;-83
2021/04/25 01:45:57;;;;;;;1.07;0.57;;;2.60;99.90;;;;;;5090741;28;20283;-82
2021/04/25 01:48:23;;;;;;;2.93;0.67;;;2.60;99.90;;;;;;5090970;28;20683;-83
2021/04/25 01:50:49;;;;;;;1.03;0.67;;;2.60;99.90;;;;;;5090205;28;20219;-83
2021/04/25 01:53:15;;;;;;;1.77;1.10;;;2.60;99.90;;;;;;5108138;28;20172;-83
2021/04/25 01:55:41;;;;;;;1.67;0.70;;;2.60;99.90;;;;;;5089998;28;20196;-83
2021/04/25 01:58:09;;;;;;;0.90;0.60;;;2.50;99.90;;;;;;5090394;28;20211;-83
2021/04/25 02:00:41;;;;;;;0.93;0.50;;;2.50;99.90;;;;;;5108738;27;20283;-83
2021/04/25 02:03:08;;;;;;;0.60;0.33;;;2.40;99.90;;;;;;5089440;27;20187;-83
2021/04/25 02:05:34;;;;;;;0.60;0.40;;;2.30;99.90;;;;;;5108774;28;20669;-83
2021/04/25 02:08:00;;;;;;;1.00;0.63;;;2.40;99.90;;;;;;5089703;28;20568;-83
2021/04/25 02:10:28;;;;;;;6.10;1.07;;;2.20;99.90;;;;;;5086021;28;20700;-83
2021/04/25 02:12:54;;;;;;;1.07;0.90;;;2.30;99.90;;;;;;5107930;28;20203;-83
2021/04/25 02:15:21;;;;;;;2.00;1.17;;;2.30;99.90;;;;;;5089417;28;20645;-83
2021/04/25 02:17:46;;;;;;;2.93;0.90;;;2.20;99.90;;;;;;5089772;28;20177;-84
2021/04/25 02:20:15;;;;;;;1.53;0.80;;;2.10;99.90;;;;;;5108250;27;20892;-83
2021/04/25 02:22:41;;;;;;;1.13;0.70;;;2.00;99.90;;;;;;5089231;28;20176;-83
2021/04/25 02:25:08;;;;;;;1.13;0.90;;;2.10;99.90;;;;;;5089576;27;20742;-85
2021/04/25 02:27:34;;;;;;;1.00;0.63;;;2.10;99.90;;;;;;5084080;28;20188;-83
2021/04/25 02:30:00;;;;;;;0.97;0.87;;;2.10;99.90;;;;;;5091239;28;20198;-82
2021/04/25 02:32:26;;;;;;;1.17;1.07;;;2.10;99.90;;;;;;5092102;28;20187;-81
2021/04/25 02:34:52;;;;;;;0.47;0.43;;;2.00;99.90;;;;;;5090505;28;20561;-82
2021/04/25 02:37:17;;;;;;;1.00;0.60;;;2.00;99.90;;;;;;5091894;28;20176;-81
2021/04/25 02:39:43;;;;;;;0.90;0.87;;;2.10;99.90;;;;;;5090424;28;20225;-84
2021/04/25 02:42:09;;;;;;;0.93;0.40;;;2.10;99.90;;;;;;5089887;28;20204;-82
2021/04/25 02:44:35;;;;;;;0.70;0.47;;;2.10;99.90;;;;;;5089193;28;20650;-82
2021/04/25 02:47:01;;;;;;;2.87;0.70;;;2.00;99.90;;;;;;5089152;28;20180;-80
2021/04/25 02:49:26;;;;;;;0.73;0.73;;;2.00;99.90;;;;;;5088913;28;20193;-83
2021/04/25 02:51:52;;;;;;;1.53;1.07;;;1.90;99.90;;;;;;5107583;28;21333;-81
2021/04/25 02:54:19;;;;;;;2.23;0.90;;;1.90;99.90;;;;;;5106710;27;20180;-83
2021/04/25 02:56:45;;;;;;;1.37;0.93;;;1.90;99.90;;;;;;5089096;28;20187;-83
2021/04/25 02:59:10;;;;;;;1.67;0.73;;;1.80;99.90;;;;;;5107569;28;20180;-81
2021/04/25 03:01:36;;;;;;;2.10;0.70;;;1.80;99.90;;;;;;5088698;28;20215;-81
2021/04/25 03:04:02;;;;;;;2.40;0.90;;;1.80;99.90;;;;;;5107789;28;20187;-83
2021/04/25 03:06:27;;;;;;;0.83;0.83;;;1.70;99.90;;;;;;5088253;28;20184;-82
2021/04/25 03:08:53;;;;;;;0.93;0.77;;;1.80;99.90;;;;;;5088537;28;20284;-81
2021/04/25 03:11:19;;;;;;;1.50;0.80;;;1.80;99.90;;;;;;5089022;28;20203;-82
2021/04/25 03:13:44;;;;;;;1.97;1.00;;;1.80;99.90;;;;;;5088674;28;20586;-81
2021/04/25 03:16:10;;;;;;;0.77;0.77;;;1.90;99.90;;;;;;5107281;28;20184;-83
2021/04/25 03:18:35;;;;;;;0.87;0.80;;;1.70;99.90;;;;;;5107574;28;20737;-81
2021/04/25 03:21:01;;;;;;;3.70;1.63;;;1.70;99.90;;;;;;5107334;28;20212;-82
2021/04/25 03:23:27;;;;;;;2.10;1.20;;;1.70;99.90;;;;;;5088624;28;20187;-81
2021/04/25 03:25:52;;;;;;;1.20;1.03;;;1.60;99.90;;;;;;5106934;28;20580;-85
2021/04/25 03:28:19;;;;;;;1.50;0.77;;;1.60;99.90;;;;;;5089733;28;20184;-82
2021/04/25 03:30:45;;;;;;;1.00;0.60;;;1.60;99.90;;;;;;5088969;28;20212;-83
2021/04/25 03:33:11;;;;;;;1.37;1.00;;;1.50;99.90;;;;;;5087935;28;20176;-81
2021/04/25 03:35:36;;;;;;;1.73;0.83;;;1.60;99.90;;;;;;5088867;28;20172;-80
2021/04/25 03:38:02;;;;;;;1.30;1.20;;;1.50;99.90;;;;;;5106651;28;20324;-82
2021/04/25 03:40:27;;;;;;;2.40;1.83;;;1.50;99.90;;;;;;5089065;28;20203;-81
2021/04/25 03:42:53;;;;;;;1.13;0.90;;;1.50;99.90;;;;;;5088180;28;20279;-83
2021/04/25 03:45:19;;;;;;;1.43;1.03;;;1.50;99.90;;;;;;5088647;28;20186;-80
2021/04/25 03:47:47;;;;;;;1.73;0.77;;;1.40;99.90;;;;;;5088199;28;20191;-84
2021/04/25 03:50:15;;;;;;;2.43;0.93;;;1.40;99.90;;;;;;5106698;28;20211;-82
2021/04/25 03:52:42;;;;;;;3.17;1.27;;;1.40;99.90;;;;;;5088316;28;20207;-82
2021/04/25 03:55:08;;;;;;;1.23;1.00;;;1.30;99.90;;;;;;5106872;28;20180;-83
2021/04/25 03:57:33;;;;;;;0.73;0.70;;;1.20;99.90;;;;;;5106367;28;20207;-83
2021/04/25 04:00:00;;;;;;;2.97;1.40;;;1.20;99.90;;;;;;5088692;28;20255;-81
2021/04/25 04:02:26;;;;;;;1.83;1.00;;;1.20;99.90;;;;;;5088082;28;20196;-82
2021/04/25 04:04:51;;;;;;;1.90;0.90;;;1.30;99.90;;;;;;5090378;28;20187;-82
2021/04/25 04:07:17;;;;;;;2.47;1.60;;;1.20;99.90;;;;;;5092914;27;20176;-83
2021/04/25 04:09:42;;;;;;;2.23;1.47;;;1.20;99.90;;;;;;5092398;28;20181;-83
2021/04/25 04:12:08;;;;;;;1.00;0.40;;;1.10;99.90;;;;;;5092698;27;20216;-83
2021/04/25 04:14:34;;;;;;;1.20;0.80;;;1.20;99.90;;;;;;5091844;28;20176;-83
2021/04/25 04:17:00;;;;;;;0.77;0.77;;;1.10;99.90;;;;;;5110055;27;20180;-83
2021/04/25 04:19:25;;;;;;;1.50;0.93;;;1.10;99.90;;;;;;5110881;27;20542;-82
2021/04/25 04:21:51;;;;;;;1.07;0.80;;;1.20;99.90;;;;;;5111459;27;20260;-81
2021/04/25 04:24:17;;;;;;;1.40;1.00;;;1.10;99.90;;;;;;5092201;28;20286;-82
2021/04/25 04:26:42;;;;;;;3.87;1.60;;;1.10;99.90;;;;;;5091573;28;20196;-84
2021/04/25 04:29:08;;;;;;;1.07;0.70;;;1.10;99.90;;;;;;5091682;27;20230;-82
2021/04/25 04:31:34;;;;;;;1.77;1.30;;;1.20;99.90;;;;;;5090935;28;20223;-80
2021/04/25 04:33:59;;;;;;;1.03;0.87;;;1.10;99.90;;;;;;5091264;28;20220;-84
2021/04/25 04:36:25;;;;;;;0.90;0.90;;;1.20;99.90;;;;;;5091046;28;20182;-83
2021/04/25 04:38:50;;;;;;;2.80;1.37;;;1.20;99.90;;;;;;5109594;28;20172;-84
2021/04/25 04:41:16;;;;;;;1.60;1.13;;;1.30;99.90;;;;;;5090765;27;20692;-83
2021/04/25 04:43:42;;;;;;;1.03;0.80;;;1.40;99.90;;;;;;5109411;28;20172;-85
2021/04/25 04:46:07;;;;;;;1.40;1.30;;;1.50;99.90;;;;;;5091011;28;20216;-82
2021/04/25 04:48:33;;;;;;;7.80;2.20;;;1.70;99.90;;;;;;5090988;28;20200;-82
2021/04/25 04:50:58;;;;;;;1.93;1.50;;;1.90;99.90;;;;;;5090844;27;20212;-82
2021/04/25 04:53:24;;;;;;;2.23;1.00;;;2.20;99.90;;;;;;5091064;28;20325;-83
2021/04/25 04:55:50;;;;;;;2.80;0.80;;;2.40;99.90;;;;;;5109393;27;20204;-82
2021/04/25 04:58:15;;;;;;;1.47;0.83;;;3.00;99.90;;;;;;5090424;28;20180;-80
2021/04/25 05:00:41;;;;;;;1.27;1.00;;;3.60;99.90;;;;;;5109071;27;20196;-82
2021/04/25 05:03:06;;;;;;;1.20;0.97;;;4.30;99.90;;;;;;5090581;27;20222;-82
2021/04/25 05:05:32;;;;;;;2.33;0.97;;;5.10;99.90;;;;;;5090566;28;20185;-84
2021/04/25 05:07:57;;;;;;;1.23;1.03;;;5.40;99.90;;;;;;5090888;28;20180;-83
2021/04/25 05:10:23;;;;;;;2.33;1.30;;;6.00;99.90;;;;;;5108973;27;20215;-82
2021/04/25 05:12:49;;;;;;;1.77;1.10;;;6.50;99.90;;;;;;5108999;27;20221;-82
2021/04/25 05:15:14;;;;;;;1.70;0.90;;;6.80;99.90;;;;;;5108491;27;20179;-82
2021/04/25 05:17:40;;;;;;;1.50;0.60;;;7.20;99.90;;;;;;5087282;28;20175;-84
2021/04/25 05:20:06;;;;;;;0.70;0.70;;;7.40;99.90;;;;;;5091731;27;20180;-83
2021/04/25 05:22:32;;;;;;;2.50;1.03;;;7.50;99.90;;;;;;5090022;28;20199;-82
2021/04/25 05:24:57;;;;;;;1.83;1.13;;;7.70;99.90;;;;;;5108459;27;20190;-84
2021/04/25 05:27:23;;;;;;;0.90;0.70;;;8.10;99.90;;;;;;5108382;27;20293;-80
2021/04/25 05:29:49;;;;;;;1.93;1.67;;;8.40;99.90;;;;;;5090122;28;20263;-84
2021/04/25 05:32:15;;;;;;;1.53;1.43;;;8.40;99.90;;;;;;5089847;28;20375;-82
2021/04/25 05:34:40;;;;;;;1.07;0.90;;;8.80;99.90;;;;;;5089620;28;20188;-84
2021/04/25 05:37:06;;;;;;;1.30;0.70;;;9.10;99.90;;;;;;5090071;28;20195;-82
2021/04/25 05:39:31;;;;;;;1.53;0.90;;;9.10;99.90;;;;;;5089894;28;20279;-82
2021/04/25 05:41:58;;;;;;;2.53;1.03;;;9.30;99.90;;;;;;5090176;27;20253;-84
2021/04/25 05:44:27;;;;;;;2.20;1.00;;;9.60;99.90;;;;;;5089313;28;20180;-84
2021/04/25 05:46:52;;;;;;;1.63;1.10;;;9.80;99.90;;;;;;5089540;28;20190;-82
2021/04/25 05:49:18;;;;;;;1.13;0.97;;;10.00;99.90;;;;;;5107977;27;20279;-85
2021/04/25 05:51:43;;;;;;;1.70;1.00;;;10.40;99.90;;;;;;5089206;28;20212;-84
2021/04/25 05:54:09;;;;;;;1.13;1.03;;;10.60;99.90;;;;;;5090082;28;20172;-83
2021/04/25 05:56:34;;;;;;;1.27;0.70;;;10.70;99.90;;;;;;5109123;28;20180;-84
2021/04/25 05:59:00;;;;;;;1.02;0.93;;;10.50;99.90;;;;;;5108085;28;20208;-83
2021/04/25 06:01:26;;;;;;;1.35;0.70;;;10.90;99.90;;;;;;5109185;28;20586;-83
2021/04/25 06:03:51;;;;;;;0.70;0.65;;;11.00;99.90;;;;;;5087623;28;20257;-82
2021/04/25 06:06:17;;;;;;;4.00;1.10;;;10.60;99.90;;;;;;5105931;27;20183;-83
2021/04/25 06:08:43;;;;;;;1.33;1.00;;;10.60;99.90;;;;;;5087716;28;20639;-83
2021/04/25 06:11:09;;;;;;;0.70;0.63;;;10.70;99.90;;;;;;5088532;28;20220;-83
2021/04/25 06:13:35;;;;;;;3.45;1.17;;;10.70;99.90;;;;;;5089523;28;20223;-80
2021/04/25 06:16:01;;;;;;;1.67;0.93;;;10.10;99.90;;;;;;5088666;28;20212;-85
2021/04/25 06:18:27;;;;;;;2.90;0.97;;;9.30;99.90;;;;;;5106974;28;20188;-83
2021/04/25 06:20:53;;;;;;;1.33;0.80;;;9.30;99.90;;;;;;5088149;28;20696;-81
2021/04/25 06:23:20;;;;;;;1.70;0.60;;;9.30;99.90;;;;;;5104182;28;20176;-82
2021/04/25 06:25:45;;;;;;;3.43;1.53;;;9.70;99.90;;;;;;5099624;28;20681;-80
2021/04/25 06:28:11;;;;;;;1.57;1.23;;;9.30;99.90;;;;;;5084485;28;20180;-83
2021/04/25 06:30:37;;;;;;;1.07;0.70;;;8.60;99.90;;;;;;5107077;28;20250;-82
2021/04/25 06:33:02;;;;;;;1.33;1.23;;;7.70;99.90;;;;;;5090030;28;20176;-81
2021/04/25 06:35:28;;;;;;;1.10;0.83;;;7.40;99.90;;;;;;5089560;28;20229;-81
2021/04/25 06:37:54;;;;;;;0.63;0.63;;;7.40;99.90;;;;;;5107865;27;20287;-83
2021/04/25 06:40:20;;;;;;;1.53;0.83;;;7.60;99.90;;;;;;5089007;28;20263;-82
2021/04/25 06:42:45;;;;;;;1.00;0.87;;;7.50;99.90;;;;;;5089159;28;20231;-79
2021/04/25 06:45:17;;;;;;;2.00;0.80;;;7.40;99.90;;;;;;5108508;28;20287;-80
2021/04/25 06:47:42;;;;;;;0.77;0.53;;;7.30;99.90;;;;;;5107449;27;20187;-77
2021/04/25 06:50:11;;;;;;;2.47;1.03;;;7.50;99.90;;;;;;5088793;28;21050;-77
2021/04/25 06:52:42;;;;;;;0.80;0.80;;;7.60;99.90;;;;;;5088869;28;20693;-80
2021/04/25 06:55:09;;;;;;;2.83;0.93;;;7.80;99.90;;;;;;5106359;28;20188;-77
2021/04/25 06:57:35;;;;;;;1.70;0.90;;;7.70;99.90;;;;;;5106032;28;20721;-77
2021/04/25 07:00:00;;;;;;;1.30;0.67;;;7.50;99.90;;;;;;5108353;27;20277;-75
2021/04/25 07:02:27;;;;;;;1.27;0.93;;;7.60;99.90;;;;;;5108561;28;20309;-74
2021/04/25 07:04:53;;;;;;;2.17;1.10;;;7.90;99.90;;;;;;5108055;28;20184;-73
2021/04/25 07:07:19;;;;;;;1.10;1.00;;;7.90;99.90;;;;;;5091061;28;20241;-78
2021/04/25 07:09:45;;;;;;;2.57;0.93;;;8.10;99.90;;;;;;5109455;28;20223;-75
2021/04/25 07:12:10;;;;;;;0.83;0.50;;;8.20;99.90;;;;;;5109338;28;20227;-80
2021/04/25 07:14:36;;;;;;;0.87;0.50;;;7.90;99.90;;;;;;5090887;28;20219;-79
2021/04/25 07:17:02;;;;;;;1.40;0.50;;;7.90;99.90;;;;;;5109191;28;20236;-75
2021/04/25 07:19:30;;;;;;;1.23;0.60;;;8.00;99.90;;;;;;5107566;28;20184;-76
2021/04/25 07:21:56;;;;;;;0.70;0.70;;;7.60;99.90;;;;;;5088711;28;20727;-78
2021/04/25 07:24:21;;;;;;;0.73;0.60;;;7.40;99.90;;;;;;5088400;28;20218;-76
2021/04/25 07:26:47;;;;;;;0.30;0.30;;;7.40;99.90;;;;;;5085944;28;20180;-74
2021/04/25 07:29:14;;;;;;;0.50;0.50;;;7.20;99.90;;;;;;5105228;28;20198;-76
2021/04/25 07:31:40;;;;;;;1.33;0.77;;;7.20;99.90;;;;;;5104509;28;20200;-76
2021/04/25 07:34:05;;;;;;;2.23;1.17;;;7.10;99.90;;;;;;5105529;28;20188;-77
2021/04/25 07:36:31;;;;;;;1.67;0.57;;;7.10;99.90;;;;;;5104733;28;20671;-78
2021/04/25 07:38:57;;;;;;;0.67;0.60;;;6.90;99.90;;;;;;5107410;27;20180;-76
2021/04/25 07:41:22;;;;;;;0.73;0.50;;;7.00;99.90;;;;;;5110672;27;20252;-78
2021/04/25 07:43:48;;;;;;;1.73;0.90;;;6.90;99.90;;;;;;5111155;27;20242;-83
2021/04/25 07:46:15;;;;;;;1.17;0.83;;;7.00;99.90;;;;;;5092201;28;20195;-83
2021/04/25 07:48:41;;;;;;;0.40;0.40;;;7.10;99.90;;;;;;5111307;27;20192;-81
2021/04/25 07:51:06;;;;;;;0.70;0.70;;;7.30;99.90;;;;;;5092335;28;20886;-81
2021/04/25 07:53:32;;;;;;;1.30;0.50;;;7.50;99.90;;;;;;5110335;28;20168;-81
2021/04/25 07:55:57;;;;;;;0.63;0.47;;;7.60;99.90;;;;;;5091810;28;20184;-83
2021/04/25 07:58:23;;;;;;;2.10;0.60;;;7.70;99.90;;;;;;5092250;28;20244;-79
2021/04/25 08:00:49;;;;;;;2.63;1.17;;;7.50;99.90;;;;;;5110325;28;20204;-81
2021/04/25 08:03:14;;;;;;;0.50;0.50;;;7.40;99.90;;;;;;5110529;27;20188;-82
2021/04/25 08:05:40;;;;;;;0.57;0.50;;;7.40;99.90;;;;;;5091197;28;20179;-80
2021/04/25 08:08:06;;;;;;;2.07;1.30;;;7.20;99.90;;;;;;5092101;27;20176;-82
2021/04/25 08:10:31;;;;;;;0.70;0.40;;;7.00;99.90;;;;;;5091500;28;20219;-81
2021/04/25 08:12:57;;;;;;;0.33;0.27;;;7.00;99.90;;;;;;5110560;28;20180;-81
2021/04/25 08:15:24;;;;;;;0.30;0.30;;;6.80;99.90;;;;;;5110463;27;20925;-82
2021/04/25 08:17:56;;;;;;;2.40;0.30;;;7.00;99.90;;;;;;5111555;27;20173;-81
2021/04/25 08:20:22;;;;;;;2.50;0.90;;;7.30;99.90;;;;;;5091723;28;20539;-82
2021/04/25 08:22:48;;;;;;;0.77;0.30;;;7.60;99.90;;;;;;5095040;28;20190;-82
2021/04/25 08:25:13;;;;;;;0.60;0.60;;;8.20;99.90;;;;;;5095226;28;20176;-83
2021/04/25 08:27:39;;;;;;;1.43;0.83;;;8.80;99.90;;;;;;5111291;28;20646;-83
2021/04/25 08:30:06;;;;;;;0.30;0.30;;;8.80;99.90;;;;;;5088824;27;20261;-83
2021/04/25 08:32:31;;;;;;;0.30;0.30;;;8.70;99.90;;;;;;5107280;28;20606;-81
2021/04/25 08:34:57;;;;;;;0.53;0.53;;;8.50;99.90;;;;;;5090557;28;20188;-82
2021/04/25 08:37:23;;;;;;;0.50;0.50;;;8.30;99.90;;;;;;5090584;28;20186;-82
2021/04/25 08:39:48;;;;;;;0.40;0.40;;;8.40;99.90;;;;;;5109721;27;20596;-82
2021/04/25 08:42:14;;;;;;;1.37;0.50;;;8.70;99.90;;;;;;5109039;28;20386;-82
2021/04/25 08:44:43;;;;;;;1.77;0.70;;;8.70;99.90;;;;;;5108282;27;20638;-82
2021/04/25 08:47:09;;;;;;;0.73;0.30;;;8.50;99.90;;;;;;5090202;28;20324;-81
2021/04/25 08:49:35;;;;;;;2.23;0.60;;;8.30;99.90;;;;;;5089935;28;20291;-82
2021/04/25 08:52:01;;;;;;;1.53;0.80;;;8.60;99.90;;;;;;5089240;27;20302;-82
2021/04/25 08:54:27;;;;;;;0.40;0.40;;;8.40;99.90;;;;;;5090309;28;20203;-81
2021/04/25 08:56:55;;;;;;;0.53;0.40;;;8.60;99.90;;;;;;5090800;28;20697;-82
2021/04/25 08:59:21;;;;;;;0.50;0.50;;;8.60;99.90;;;;;;5089141;28;20176;-82
2021/04/25 09:01:47;;;;;;;0.70;0.47;;;8.40;99.90;;;;;;5107292;27;20211;-82
2021/04/25 09:04:12;;;;;;;0.70;0.60;;;8.50;99.90;;;;;;5089242;27;20188;-83
2021/04/25 09:06:59;;;;;;;1.80;0.83;;;8.90;99.90;;;;;;5086874;28;20181;-82
2021/04/25 09:09:42;;;;;;;2.30;0.90;;;9.10;99.90;;;;;;5107986;27;20188;-82
2021/04/25 09:12:08;;;;;;;0.60;0.60;;;8.70;99.90;;;;;;5108279;27;20273;-82
2021/04/25 09:14:38;;;;;;;0.60;0.60;;;8.60;99.90;;;;;;5108109;27;20176;-82
2021/04/25 09:17:04;;;;;;;1.23;0.93;;;9.10;99.90;;;;;;5089217;28;20530;-82
2021/04/25 09:19:47;;;;;;;0.60;0.50;;;8.90;99.90;;;;;;5089290;28;20200;-82
2021/04/25 09:22:13;;;;;;;1.27;0.83;;;8.70;99.90;;;;;;5082107;28;20215;-81
2021/04/25 09:24:39;;;;;;;0.50;0.40;;;8.70;99.90;;;;;;5085861;28;20191;-82
2021/04/25 09:27:05;;;;;;;0.67;0.63;;;8.70;99.90;;;;;;5089249;28;20183;-82
2021/04/25 09:29:54;;;;;;;0.37;0.37;;;9.00;99.90;;;;;;5090229;28;20184;-82
2021/04/25 09:32:26;;;;;;;0.40;0.40;;;9.30;99.90;;;;;;5089778;28;20281;-83
2021/04/25 09:35:16;;;;;;;0.70;0.60;;;9.60;99.90;;;;;;5105801;28;20255;-81
2021/04/25 09:37:45;;;;;;;0.60;0.60;;;9.40;99.90;;;;;;5087718;28;20168;-82
2021/04/25 09:40:17;;;;;;;1.10;0.80;;;9.10;99.90;;;;;;5088642;27;20176;-82
2021/04/25 09:43:10;;;;;;;1.67;0.70;;;9.40;99.90;;;;;;5086910;28;20180;-81
2021/04/25 09:45:46;;;;;;;1.57;0.70;;;9.80;99.90;;;;;;5082454;28;20180;-80
2021/04/25 09:48:31;;;;;;;1.10;0.90;;;9.70;99.90;;;;;;5105483;28;20608;-83
2021/04/25 09:51:15;;;;;;;3.40;0.90;;;9.50;99.90;;;;;;5107105;28;20216;-85
2021/04/25 09:53:48;;;;;;;3.03;0.50;;;9.30;99.90;;;;;;5107116;28;20225;-83
2021/04/25 09:56:14;;;;;;;0.53;0.50;;;9.60;99.90;;;;;;5088200;27;20176;-83
2021/04/25 09:58:58;;;;;;;1.93;0.80;;;10.00;99.90;;;;;;5106236;27;20210;-82
2021/04/25 10:01:38;;;;;;;1.20;0.60;;;10.60;99.90;;;;;;5088180;28;20200;-83
2021/04/25 10:04:25;;;;;;;0.53;0.53;;;10.70;99.90;;;;;;5087761;28;20227;-83
2021/04/25 10:06:53;;;;;;;1.50;0.80;;;10.90;99.90;;;;;;5087110;28;20677;-82
2021/04/25 10:09:20;;;;;;;0.63;0.60;;;10.20;99.90;;;;;;5105761;28;20290;-81
2021/04/25 10:11:50;;;;;;;1.37;0.80;;;9.70;99.90;;;;;;5105871;27;20728;-83
2021/04/25 10:14:16;;;;;;;0.40;0.40;;;9.40;99.90;;;;;;5104732;28;20352;-82
2021/04/25 10:16:42;;;;;;;2.10;0.70;;;9.70;99.90;;;;;;5106395;27;20232;-83
2021/04/25 10:19:09;;;;;;;0.67;0.60;;;10.00;99.90;;;;;;5107072;27;20183;-83
2021/04/25 10:21:36;;;;;;;1.27;0.90;;;10.20;99.90;;;;;;5108263;27;20700;-81
2021/04/25 10:24:06;;;;;;;2.30;0.87;;;10.40;99.90;;;;;;5107060;28;20188;-84
2021/04/25 10:26:48;;;;;;;1.23;1.00;;;10.70;99.80;;;;;;5088281;28;20184;-83
2021/04/25 10:29:16;;;;;;;3.10;1.40;;;10.70;99.90;;;;;;5106551;28;20423;-83
2021/04/25 10:31:44;;;;;;;1.13;0.60;;;10.90;98.60;;;;;;5106095;28;20329;-82
2021/04/25 10:34:20;;;;;;;0.93;0.83;;;10.60;99.90;;;;;;5105571;28;20172;-83
2021/04/25 10:36:51;;;;;;;0.63;0.60;;;10.60;99.30;;;;;;5105667;28;20179;-81
2021/04/25 10:39:47;;;;;;;1.80;0.97;;;10.80;99.10;;;;;;5086917;28;20185;-82
2021/04/25 10:44:56;;;;;;;5.87;1.20;;;11.10;97.40;;;;;;5105551;28;20653;-82
2021/04/25 10:47:22;;;;;;;0.70;0.70;;;11.30;98.10;;;;;;5087276;28;20188;-82
2021/04/25 10:49:48;;;;;;;3.23;1.90;;;11.50;97.20;;;;;;5085440;28;20223;-82
2021/04/25 10:52:40;;;;;;;2.37;1.23;;;11.70;97.50;;;;;;5088011;28;20890;-83
2021/04/25 10:55:12;;;;;;;1.37;1.10;;;11.90;95.90;;;;;;5101219;28;20191;-82
2021/04/25 10:57:53;;;;;;;0.77;0.67;;;11.70;95.70;;;;;;5088040;28;20171;-78
2021/04/25 11:03:00;;;;;;;0.83;0.60;;;11.60;95.60;;;;;;5107496;28;20202;-83
2021/04/25 11:05:38;;;;;;;1.23;0.73;;;11.90;95.50;;;;;;5088661;28;20210;-83
2021/04/25 11:08:05;;;;;;;0.97;0.67;;;12.20;94.00;;;;;;5093603;28;20207;-82
2021/04/25 11:11:09;;;;;;;1.47;0.80;;;12.00;94.10;;;;;;5089864;28;20204;-81
2021/04/25 11:13:47;;;;;;;0.97;0.90;;;11.90;94.60;;;;;;5081740;28;20196;-83
2021/04/25 11:16:13;;;;;;;1.17;0.90;;;11.90;95.40;;;;;;5089207;28;20176;-82
2021/04/25 11:18:45;;;;;;;0.93;0.70;;;11.70;95.70;;;;;;5089611;28;20187;-83
2021/04/25 11:21:39;;;;;;;0.90;0.90;;;11.40;96.10;;;;;;5090093;28;20200;-83
2021/04/25 11:24:05;;;;;;;0.80;0.50;;;11.30;96.60;;;;;;5107328;28;20184;-84
2021/04/25 11:26:45;;;;;;;1.80;0.90;;;11.30;96.60;;;;;;5107750;28;20183;-83
2021/04/25 11:29:25;;;;;;;1.43;0.53;;;11.20;96.40;;;;;;5080880;28;20195;-83
2021/04/25 11:31:55;;;;;;;0.80;0.80;;;11.40;96.10;;;;;;5107126;28;20215;-83
2021/04/25 11:34:27;;;;;;;2.63;1.10;;;11.40;95.90;;;;;;5088314;28;20181;-83
2021/04/25 11:37:06;;;;;;;2.20;0.90;;;11.60;96.80;;;;;;5087555;28;20180;-83
2021/04/25 11:39:41;;;;;;;0.90;0.73;;;11.70;96.70;;;;;;5085448;28;20172;-82
2021/04/25 11:42:09;;;;;;;0.60;0.60;;;11.90;96.10;;;;;;5106186;28;20228;-82
2021/04/25 11:44:42;;;;;;;1.37;0.70;;;11.40;95.50;;;;;;5088828;28;20181;-82
2021/04/25 11:47:13;;;;;;;1.83;1.10;;;10.80;96.30;;;;;;5088010;28;20179;-82
2021/04/25 11:49:41;;;;;;;1.50;1.20;;;10.80;96.10;;;;;;5079934;28;20196;-82
2021/04/25 11:52:12;;;;;;;0.97;0.87;;;10.70;96.50;;;;;;5107072;28;20223;-82
2021/04/25 11:54:43;;;;;;;1.90;1.20;;;11.10;96.30;;;;;;5088388;28;20177;-82
2021/04/25 11:57:17;;;;;;;1.13;1.07;;;11.10;95.50;;;;;;5107238;28;20173;-83
2021/04/25 11:59:51;;;;;;;1.53;1.03;;;11.10;96.00;;;;;;5110285;28;20172;-82
2021/04/25 12:02:17;;;;;;;1.07;0.73;;;11.00;96.10;;;;;;5092936;28;20214;-81
2021/04/25 12:04:54;;;;;;;1.87;0.90;;;10.80;95.60;;;;;;5110231;28;20650;-82
2021/04/25 12:07:53;;;;;;;0.90;0.83;;;11.00;95.40;;;;;;5083427;28;20270;-82
2021/04/25 12:10:35;;;;;;;0.67;0.60;;;11.60;95.60;;;;;;5076959;28;20187;-84
2021/04/25 12:13:07;;;;;;;0.70;0.70;;;12.30;92.10;;;;;;5111312;28;20180;-82
2021/04/25 12:15:43;;;;;;;1.20;1.00;;;12.70;90.80;;;;;;5092237;28;20181;-83
2021/04/25 12:18:09;;;;;;;2.03;1.40;;;12.70;85.70;;;;;;5088711;28;20179;-76
2021/04/25 12:20:46;;;;;;;1.20;0.83;;;12.20;83.60;;;;;;5103156;28;20666;-76
2021/04/25 12:23:20;;;;;;;2.13;1.00;;;12.50;82.60;;;;;;5103408;28;20183;-76
2021/04/25 12:25:46;;;;;;;1.30;0.97;;;12.30;83.50;;;;;;5104098;28;20259;-77
2021/04/25 12:28:12;;;;;;;1.03;0.67;;;12.20;84.60;;;;;;5107376;27;20907;-76
2021/04/25 12:30:38;;;;;;;0.80;0.60;;;11.70;88.20;;;;;;5107212;27;21142;-77
2021/04/25 12:33:07;;;;;;;1.97;0.83;;;11.30;90.60;;;;;;5089768;27;20184;-76
2021/04/25 13:13:23;;;;;;;0.90;0.60;;;12.60;76.20;;;;;;5109149;27;20261;-82
2021/04/25 13:15:48;;;;;;;0.90;0.70;;;12.30;77.80;;;;;;5090543;28;20216;-83
2021/04/25 13:18:15;;;;;;;1.17;0.40;;;11.40;77.90;;;;;;5109780;27;20184;-81
2021/04/25 13:20:52;;;;;;;0.50;0.50;;;11.10;80.10;;;;;;5090686;28;20236;-81
2021/04/25 13:23:24;;;;;;;0.53;0.40;;;10.90;78.50;;;;;;5090828;28;20192;-83
2021/04/25 13:25:53;;;;;;;1.17;0.70;;;10.80;78.00;;;;;;5090316;28;20210;-79
2021/04/25 13:28:21;;;;;;;0.80;0.40;;;11.40;76.00;;;;;;5091347;28;20184;-78
2021/04/25 13:30:55;;;;;;;1.07;0.80;;;11.70;75.10;;;;;;5107876;27;20208;-78
2021/04/25 13:33:26;;;;;;;0.40;0.40;;;12.00;71.70;;;;;;5109382;27;20257;-78
2021/04/25 13:35:52;;;;;;;2.40;0.80;;;12.20;71.70;;;;;;5108483;27;20184;-79
2021/04/25 13:38:20;;;;;;;0.90;0.57;;;12.40;69.90;;;;;;5110103;27;20209;-81
2021/04/25 13:40:48;;;;;;;1.07;0.60;;;12.50;70.40;;;;;;5091425;28;20554;-79
2021/04/25 13:43:13;;;;;;;0.83;0.50;;;12.40;71.30;;;;;;5090887;28;20192;-78